map of GUR home
Great Circle Mapper logo
GUR - Airport
Location
City:  Alotau, Milne Bay, Papua-New Guinea
Name:Gurney
ICAO / IATA:AYGN / GUR

Details
Type:Airport (Aerodrome, Airfield)
Latitude:10°18'42"S (-10.311530)
Longitude:150°20'02"E (150.333756)
Datum:WGS 1984
Elevation:88 ft (27 m)
Variation:6.82°E (WMM2015 magnetic declination)
-0.02° annual change
Runways:1
Longest:5546 × 98 ft (1690 × 30 m), paved

Time
Time Zone:UTC+10
Local Time:

Weather
METAR:AYGN 300200Z 13004KT 9999 FEW020 32/24 Q1011

Related Locations
Nearby:
Farthest:SFL: 11970 mi / 19264 km
São Filipe, Fogo Island, CV

Find:

   beyond  
but within

Other Information
Maps:
NOTAMs:
Links:
Sources:

  
flag of Papua-New Guinea
flag of Milne Bay
  

Sectional Chart

Flight Planning
at skyvector.com

Satellite Image

Google Maps Satellite View

 

Copyright © 2004-2015 Karl L. Swartz. All rights reserved.
The Great Circle Mapper name and logo are trademarks of the Great Circle Mapper.
All other trademarks mentioned herein belong to their respective owners.
Please see credits for attibutions and further copyright information.

  Follow gcmap on Facebook Follow gcmap on Twitter Follow gcmap on Google+

hCard Microformat

Geo Microformat